Time;durP1;ratioP1;P1;durP2;ratioP2;P2;SDS_P1;SDS_P2;PMS_P1;PMS_P2;Temp;Humidity;BMP_temperature;BMP_pressure;BME280_temperature;BME280_humidity;BME280_pressure;Samples;Min_cycle;Max_cycle;Signal;HPM_P1;HPM_P2
2022/07/16 00:01:58;;;;;;;;;1.67;1.67;;;;;;;;5070646;27;45306;-75
2022/07/16 00:04:23;;;;;;;;;6.00;2.67;;;;;;;;5064890;28;45424;-75
2022/07/16 00:06:48;;;;;;;;;3.00;3.00;;;;;;;;5063861;28;45453;-75
2022/07/16 00:09:13;;;;;;;;;5.33;3.00;;;;;;;;5066816;28;45438;-75
2022/07/16 00:11:38;;;;;;;;;3.00;3.00;;;;;;;;5064439;28;48071;-75
2022/07/16 00:14:04;;;;;;;;;1.67;1.67;;;;;;;;5067758;28;45379;-75
2022/07/16 00:16:29;;;;;;;;;2.67;1.67;;;;;;;;5067788;28;45310;-75
2022/07/16 00:19:15;;;;;;;;;4.00;3.67;;;;;;;;5069894;28;45353;-75
2022/07/16 00:21:42;;;;;;;;;2.67;2.67;;;;;;;;5067908;28;45350;-75
2022/07/16 00:24:07;;;;;;;;;3.00;2.67;;;;;;;;5071921;28;45498;-75
2022/07/16 00:26:32;;;;;;;;;2.67;2.67;;;;;;;;5066258;28;45432;-75
2022/07/16 00:28:58;;;;;;;;;1.00;1.00;;;;;;;;5075244;28;45227;-75
2022/07/16 00:31:23;;;;;;;;;2.67;2.67;;;;;;;;5062881;28;45325;-74
2022/07/16 00:33:49;;;;;;;;;3.00;3.00;;;;;;;;5063842;28;45199;-75
2022/07/16 00:36:14;;;;;;;;;2.00;2.00;;;;;;;;5068035;28;45305;-75
2022/07/16 00:38:39;;;;;;;;;4.00;3.00;;;;;;;;5065543;28;45714;-75
2022/07/16 00:41:04;;;;;;;;;2.00;2.00;;;;;;;;5066637;28;45426;-75
2022/07/16 00:43:29;;;;;;;;;2.67;2.67;;;;;;;;5066286;28;45225;-75
2022/07/16 00:45:55;;;;;;;;;3.00;3.00;;;;;;;;5069308;28;45345;-75
2022/07/16 00:48:20;;;;;;;;;3.00;3.00;;;;;;;;5069456;28;45265;-75
2022/07/16 00:50:45;;;;;;;;;3.00;3.00;;;;;;;;5071069;28;46728;-75
2022/07/16 00:53:11;;;;;;;;;1.33;1.33;;;;;;;;5069725;28;45433;-75
2022/07/16 00:55:36;;;;;;;;;4.00;2.00;;;;;;;;5073433;28;45505;-75
2022/07/16 00:58:02;;;;;;;;;2.33;2.33;;;;;;;;5073967;28;45449;-75
2022/07/16 01:00:28;;;;;;;;;2.33;2.00;;;;;;;;5072983;28;45546;-75
2022/07/16 01:02:54;;;;;;;;;3.00;2.00;;;;;;;;5062910;27;45411;-74
2022/07/16 01:05:19;;;;;;;;;4.00;3.00;;;;;;;;5068047;28;45869;-75
2022/07/16 01:07:45;;;;;;;;;3.00;3.00;;;;;;;;5062498;28;45284;-75
2022/07/16 01:10:10;;;;;;;;;2.33;2.33;;;;;;;;5068824;28;45316;-75
2022/07/16 01:12:35;;;;;;;;;4.00;3.33;;;;;;;;5070700;28;45469;-75
2022/07/16 01:15:00;;;;;;;;;2.33;2.33;;;;;;;;5076369;28;45386;-74
2022/07/16 01:17:26;;;;;;;;;1.67;1.67;;;;;;;;5072923;28;45456;-75
2022/07/16 01:19:51;;;;;;;;;2.67;2.33;;;;;;;;5073696;28;46521;-74
2022/07/16 01:22:17;;;;;;;;;3.00;3.00;;;;;;;;5071686;28;45270;-75
2022/07/16 01:24:42;;;;;;;;;3.67;2.67;;;;;;;;5068480;28;45328;-75
2022/07/16 01:27:08;;;;;;;;;2.00;2.00;;;;;;;;5059743;28;45484;-75
2022/07/16 01:29:33;;;;;;;;;6.00;3.00;;;;;;;;5072449;28;46441;-75
2022/07/16 01:31:58;;;;;;;;;4.67;2.33;;;;;;;;5063150;28;45232;-75
2022/07/16 01:34:26;;;;;;;;;6.00;3.00;;;;;;;;5071736;28;45367;-75
2022/07/16 01:36:57;;;;;;;;;5.00;3.00;;;;;;;;5066316;28;45600;-75
2022/07/16 01:39:23;;;;;;;;;4.00;4.00;;;;;;;;5073987;28;46418;-75
2022/07/16 01:41:50;;;;;;;;;4.00;2.00;;;;;;;;5066828;28;45367;-75
2022/07/16 01:44:15;;;;;;;;;2.00;2.00;;;;;;;;5062581;28;45299;-75
2022/07/16 01:46:40;;;;;;;;;3.00;3.00;;;;;;;;5067425;28;45514;-75
2022/07/16 01:49:05;;;;;;;;;4.33;4.33;;;;;;;;5064364;28;45583;-75
2022/07/16 01:51:30;;;;;;;;;4.33;4.00;;;;;;;;5069728;28;45787;-75
2022/07/16 01:53:56;;;;;;;;;3.67;3.00;;;;;;;;5075561;28;45429;-75
2022/07/16 01:56:21;;;;;;;;;4.33;4.33;;;;;;;;5073803;28;45388;-75
2022/07/16 01:58:46;;;;;;;;;4.00;4.00;;;;;;;;5072219;28;46661;-75
2022/07/16 02:01:11;;;;;;;;;4.33;3.00;;;;;;;;5069859;28;45390;-75
2022/07/16 02:03:36;;;;;;;;;4.33;4.00;;;;;;;;5066897;28;45253;-75
2022/07/16 02:06:02;;;;;;;;;4.33;3.00;;;;;;;;5066426;27;45778;-75
2022/07/16 02:08:27;;;;;;;;;3.00;3.00;;;;;;;;5070376;28;45342;-75
2022/07/16 02:10:52;;;;;;;;;4.00;4.00;;;;;;;;5065432;28;45668;-75
2022/07/16 02:13:17;;;;;;;;;3.67;3.67;;;;;;;;5072185;28;45264;-75
2022/07/16 02:15:43;;;;;;;;;4.00;4.00;;;;;;;;5066302;28;45566;-75
2022/07/16 02:18:08;;;;;;;;;6.67;5.33;;;;;;;;5073144;28;45382;-75
2022/07/16 02:20:33;;;;;;;;;3.33;3.33;;;;;;;;5067077;28;45385;-75
2022/07/16 02:22:58;;;;;;;;;5.67;5.00;;;;;;;;5075223;28;45318;-75
2022/07/16 02:37:04;;;;;;;;;3.67;3.67;;;;;19.36;43.34;101890.44;5127242;27;45318;-77
2022/07/16 02:39:30;;;;;;;;;3.00;3.00;;;;;19.41;42.62;101875.28;5097352;27;45359;-78
2022/07/16 02:41:55;;;;;;;;;3.00;2.67;;;;;19.51;43.40;101892.31;5101993;27;45192;-78
2022/07/16 02:44:20;;;;;;;;;4.00;3.33;;;;;19.50;43.27;101894.09;5112409;27;45496;-78
2022/07/16 02:46:46;;;;;;;;;4.00;3.33;;;;;19.42;43.14;101886.00;5101821;27;45513;-76
2022/07/16 02:49:11;;;;;;;;;5.33;3.00;;;;;19.37;43.37;101876.16;5100839;27;45554;-75
2022/07/16 02:51:36;;;;;;;;;2.67;2.67;;;;;19.40;43.25;101890.47;5105009;27;45336;-75
2022/07/16 02:54:02;;;;;;;;;4.33;4.33;;;;;19.34;42.58;101893.09;5102487;27;45287;-76
2022/07/16 02:56:28;;;;;;;;;4.00;4.00;;;;;19.15;43.58;101857.25;5108105;27;45375;-76
2022/07/16 02:58:53;;;;;;;;;5.00;3.67;;;;;19.32;43.44;101891.31;5104177;27;45581;-77
2022/07/16 03:01:18;;;;;;;;;2.67;2.67;;;;;19.26;44.02;101881.44;5109417;27;45347;-77
2022/07/16 03:03:44;;;;;;;;;5.33;4.00;;;;;19.23;44.20;101879.63;5106921;27;45292;-77
2022/07/16 03:06:09;;;;;;;;;3.67;3.00;;;;;19.15;44.24;101869.75;5110054;27;45264;-77
2022/07/16 03:08:34;;;;;;;;;5.00;3.00;;;;;19.10;43.60;101859.03;5108891;27;45289;-77
2022/07/16 03:11:00;;;;;;;;;3.00;2.00;;;;;19.17;43.38;101879.59;5108414;27;45421;-76
2022/07/16 03:13:25;;;;;;;;;4.00;3.67;;;;;19.14;44.53;101881.38;5096361;27;45462;-77
2022/07/16 03:15:51;;;;;;;;;4.00;4.00;;;;;19.10;44.39;101880.47;5097456;27;45841;-76
2022/07/16 03:18:16;;;;;;;;;5.33;5.00;;;;;19.08;44.34;101884.91;5104826;27;45317;-76
2022/07/16 03:20:42;;;;;;;;;6.00;5.00;;;;;19.07;44.43;101882.22;5100122;27;45326;-77
2022/07/16 03:23:07;;;;;;;;;4.67;4.67;;;;;18.82;44.47;101855.28;5099062;27;45259;-78
2022/07/16 03:25:33;;;;;;;;;6.33;4.00;;;;;19.02;44.33;101887.56;5103598;27;46465;-77
2022/07/16 03:27:58;;;;;;;;;5.67;5.67;;;;;18.98;44.36;101880.38;5096631;27;45302;-76
2022/07/16 03:30:24;;;;;;;;;5.67;4.00;;;;;18.97;44.33;101876.81;5100482;27;45267;-77
2022/07/16 03:32:49;;;;;;;;;5.00;5.00;;;;;18.95;44.65;101881.25;5097300;27;45625;-76
2022/07/16 03:35:14;;;;;;;;;4.00;3.00;;;;;18.95;44.79;101883.03;5107130;27;45527;-77
2022/07/16 03:40:26;;;;;;;;;3.67;3.67;;;;;18.88;45.23;101886.56;5090278;27;45414;-77
2022/07/16 03:42:52;;;;;;;;;5.00;5.00;;;;;18.86;45.51;101886.53;5085410;27;45489;-77
2022/07/16 03:45:17;;;;;;;;;6.00;5.00;;;;;18.83;45.39;101885.63;5093272;27;45919;-77
2022/07/16 03:47:43;;;;;;;;;4.00;4.00;;;;;18.84;45.63;101892.78;5091954;27;45442;-77
2022/07/16 03:50:08;;;;;;;;;4.33;4.00;;;;;18.82;45.25;101886.50;5100558;27;45284;-76
2022/07/16 03:52:34;;;;;;;;;7.33;4.00;;;;;18.80;45.76;101888.28;5091557;27;45667;-77
2022/07/16 03:54:59;;;;;;;;;5.00;5.00;;;;;18.78;44.90;101890.94;5096782;27;46104;-77
2022/07/16 03:57:24;;;;;;;;;5.00;5.00;;;;;18.69;45.69;101886.38;5092673;27;45200;-77
2022/07/16 03:59:50;;;;;;;;;4.00;3.33;;;;;18.70;45.33;101890.84;5092434;27;45487;-76
2022/07/16 04:02:15;;;;;;;;;4.67;3.33;;;;;18.62;45.06;101887.19;5091059;27;45816;-76
2022/07/16 04:04:41;;;;;;;;;4.00;3.00;;;;;18.61;44.22;101892.56;5097518;27;45390;-76
2022/07/16 04:07:06;;;;;;;;;5.67;4.00;;;;;18.51;45.29;101883.53;5076581;27;45319;-76
2022/07/16 04:09:31;;;;;;;;;4.00;4.00;;;;;18.59;46.54;101897.88;5096057;27;46017;-76
2022/07/16 04:11:57;;;;;;;;;6.33;4.00;;;;;18.56;46.10;101903.22;5089219;27;45325;-76
2022/07/16 04:14:22;;;;;;;;;5.67;4.00;;;;;18.53;46.51;101914.78;5094939;27;45292;-76
2022/07/16 04:16:47;;;;;;;;;6.00;5.00;;;;;18.50;45.78;101912.09;5083060;27;45508;-76
2022/07/16 04:19:13;;;;;;;;;6.00;5.00;;;;;18.39;46.65;101892.34;5087134;27;45378;-76
2022/07/16 04:21:39;;;;;;;;;4.33;4.33;;;;;18.45;47.12;101910.25;5086640;27;45552;-76
2022/07/16 04:24:04;;;;;;;;;4.00;4.00;;;;;18.37;46.54;101903.91;5089234;27;45379;-76
2022/07/16 04:26:30;;;;;;;;;3.67;3.67;;;;;18.29;47.12;101901.19;5096135;27;45304;-76
2022/07/16 04:28:56;;;;;;;;;3.67;3.67;;;;;18.33;46.64;101917.28;5092945;27;45568;-76
2022/07/16 04:31:22;;;;;;;;;4.00;4.00;;;;;18.34;46.55;101926.19;5090200;27;45410;-76
2022/07/16 04:33:47;;;;;;;;;3.00;3.00;;;;;18.33;46.93;101927.09;5088247;27;45303;-76
2022/07/16 04:36:13;;;;;;;;;5.00;5.00;;;;;18.34;46.78;101924.44;5097556;27;45451;-75
2022/07/16 04:38:38;;;;;;;;;4.00;4.00;;;;;18.24;46.13;101922.53;5094998;27;45221;-76
2022/07/16 04:41:04;;;;;;;;;4.00;4.00;;;;;18.28;46.35;101924.34;5092673;27;45393;-76
2022/07/16 04:43:29;;;;;;;;;5.00;3.00;;;;;18.24;46.30;101929.69;5094840;27;45271;-76
2022/07/16 04:45:54;;;;;;;;;4.33;3.67;;;;;18.25;46.50;101934.13;5087118;27;45316;-76
2022/07/16 04:48:20;;;;;;;;;4.33;3.00;;;;;18.17;47.38;101926.03;5086007;27;45283;-76
2022/07/16 04:50:45;;;;;;;;;4.67;4.00;;;;;18.19;45.05;101932.28;5088787;27;45263;-75
2022/07/16 04:53:10;;;;;;;;;6.33;4.33;;;;;18.03;47.84;101925.88;5089650;27;45387;-76
2022/07/16 04:55:36;;;;;;;;;6.00;5.67;;;;;18.13;47.92;101934.91;5083124;27;45331;-76
2022/07/16 04:58:01;;;;;;;;;5.00;3.33;;;;;17.93;46.22;101896.34;5091798;27;45271;-76
2022/07/16 05:00:27;;;;;;;;;4.67;4.00;;;;;18.03;47.80;101923.19;5088006;27;45410;-76
2022/07/16 05:02:59;;;;;;;;;5.67;5.00;;;;;18.08;46.51;101934.84;5095253;27;46288;-76
2022/07/16 05:05:30;;;;;;;;;4.67;4.00;;;;;18.06;47.19;101941.06;5088953;27;45168;-76
2022/07/16 05:07:56;;;;;;;;;6.00;5.00;;;;;18.01;48.37;101941.03;5098666;27;45445;-76
2022/07/16 05:10:21;;;;;;;;;5.67;4.33;;;;;17.80;48.53;101900.63;5070331;27;45462;-78
2022/07/16 05:12:47;;;;;;;;;7.00;5.67;;;;;17.90;48.22;101921.28;5100103;27;45797;-76
2022/07/16 05:15:13;;;;;;;;;4.67;4.00;;;;;18.03;48.41;101938.34;5094519;27;45434;-78
2022/07/16 05:17:38;;;;;;;;;4.33;4.00;;;;;18.02;48.57;101937.47;5098302;27;45226;-77
2022/07/16 05:20:04;;;;;;;;;7.00;7.00;;;;;18.03;48.94;101924.97;5084588;27;45391;-78
2022/07/16 05:22:31;;;;;;;;;5.00;5.00;;;;;17.95;48.66;101908.81;5091674;27;45293;-78
2022/07/16 05:24:57;;;;;;;;;4.00;4.00;;;;;18.03;48.10;101919.63;5093417;27;45335;-77
2022/07/16 05:27:22;;;;;;;;;4.33;4.33;;;;;17.99;49.56;101915.13;5082077;27;45358;-77
2022/07/16 05:29:47;;;;;;;;;7.00;4.00;;;;;18.07;49.61;101925.03;5088706;27;45315;-77
2022/07/16 05:32:13;;;;;;;;;6.00;6.00;;;;;18.05;49.51;101918.75;5086534;27;45245;-77
2022/07/16 05:34:38;;;;;;;;;6.00;4.00;;;;;17.99;49.53;101910.66;5090743;27;45343;-76
2022/07/16 05:37:03;;;;;;;;;5.33;5.33;;;;;18.06;46.23;101917.91;5097695;27;45347;-77
2022/07/16 05:39:29;;;;;;;;;5.00;5.00;;;;;18.11;49.72;101931.31;5089478;27;45382;-77
2022/07/16 05:41:55;;;;;;;;;9.33;7.67;;;;;18.07;49.04;101922.34;5092880;27;45513;-77
2022/07/16 05:44:20;;;;;;;;;8.33;8.33;;;;;18.13;47.86;101926.00;5096116;27;45394;-76
2022/07/16 05:46:46;;;;;;;;;9.00;7.00;;;;;18.13;49.16;101928.66;5090301;27;45437;-77
2022/07/16 05:49:11;;;;;;;;;7.33;6.00;;;;;18.17;49.67;101938.50;5093774;27;45239;-77
2022/07/16 05:51:36;;;;;;;;;8.67;6.67;;;;;18.16;49.84;101926.91;5080467;27;45292;-75
2022/07/16 05:54:02;;;;;;;;;6.33;5.67;;;;;18.27;49.95;101944.00;5089914;27;45252;-75
2022/07/16 05:56:27;;;;;;;;;8.00;6.33;;;;;18.15;49.46;101916.19;5081450;27;45415;-76
2022/07/16 05:58:52;;;;;;;;;5.67;5.33;;;;;18.27;49.44;101938.63;5091400;27;45306;-75
2022/07/16 06:01:18;;;;;;;;;8.67;6.67;;;;;18.33;48.26;101940.47;5085047;27;45173;-75
2022/07/16 06:03:43;;;;;;;;;8.00;7.00;;;;;18.39;49.20;101950.34;5095091;27;45211;-76
2022/07/16 06:06:08;;;;;;;;;7.67;6.00;;;;;18.43;48.56;101953.09;5094524;27;45877;-75
2022/07/16 06:08:34;;;;;;;;;7.00;7.00;;;;;18.45;48.88;101955.75;5083606;27;47456;-76
2022/07/16 06:10:59;;;;;;;;;7.67;6.33;;;;;18.50;48.33;101954.03;5085476;27;45948;-75
2022/07/16 06:13:25;;;;;;;;;8.00;6.67;;;;;18.55;49.14;101960.34;5094724;27;45235;-74
2022/07/16 06:15:51;;;;;;;;;6.33;6.33;;;;;18.60;48.83;101968.41;5089859;27;45979;-76
2022/07/16 06:18:16;;;;;;;;;7.00;6.67;;;;;18.48;48.45;101934.38;5087151;27;45418;-77
2022/07/16 06:20:42;;;;;;;;;6.33;5.00;;;;;18.73;46.88;101965.84;5075497;27;46623;-76
2022/07/16 06:23:07;;;;;;;;;7.33;7.33;;;;;18.76;48.38;101957.00;5088736;27;45343;-77
2022/07/16 06:25:33;;;;;;;;;9.00;6.00;;;;;18.83;49.04;101963.31;5080923;27;45365;-77
2022/07/16 06:27:58;;;;;;;;;9.33;7.00;;;;;18.94;48.22;101950.91;5072091;27;47144;-78
2022/07/16 06:30:24;;;;;;;;;6.00;4.67;;;;;19.22;47.92;101976.16;5083899;27;45990;-77
2022/07/16 06:32:49;;;;;;;;;8.00;6.33;;;;;19.42;47.75;101976.28;5077083;27;45347;-77
2022/07/16 06:35:15;;;;;;;;;8.00;5.33;;;;;19.72;47.19;101978.31;5087283;27;47053;-78
2022/07/16 06:37:40;;;;;;;;;5.00;5.00;;;;;20.05;46.40;101984.69;5093185;27;45489;-78
2022/07/16 06:40:06;;;;;;;;;5.33;5.33;;;;;20.21;46.76;101962.38;5089298;27;45553;-78
2022/07/16 06:42:32;;;;;;;;;7.33;4.00;;;;;20.59;45.30;101992.97;5092787;27;45343;-77
2022/07/16 06:44:58;;;;;;;;;6.33;5.00;;;;;20.89;44.61;101989.41;5081193;27;45509;-78
2022/07/16 06:47:23;;;;;;;;;7.00;5.33;;;;;21.19;44.55;101993.91;5081179;27;45454;-77
2022/07/16 06:49:48;;;;;;;;;6.67;6.00;;;;;21.45;43.65;102000.22;5081534;27;46173;-78
2022/07/16 06:52:14;;;;;;;;;4.67;2.67;;;;;21.85;42.71;102002.78;5068726;27;45329;-77
2022/07/16 06:54:39;;;;;;;;;5.00;5.00;;;;;22.16;42.03;102002.69;5086605;27;45460;-78
2022/07/16 06:57:04;;;;;;;;;6.00;6.00;;;;;22.33;41.79;101984.66;5083900;27;45402;-78
2022/07/16 06:59:30;;;;;;;;;4.67;4.67;;;;;22.72;41.53;102006.00;5086334;27;46095;-78
2022/07/16 07:01:55;;;;;;;;;5.67;4.67;;;;;22.99;40.71;102000.44;5085090;27;45232;-78
2022/07/16 07:04:20;;;;;;;;;3.67;3.67;;;;;23.23;40.13;101993.91;5088611;27;45661;-78
2022/07/16 07:06:46;;;;;;;;;5.33;4.33;;;;;23.57;39.92;102012.47;5086900;27;45448;-78
2022/07/16 07:09:11;;;;;;;;;3.67;3.67;;;;;23.85;39.47;102018.50;5079062;27;48055;-78
2022/07/16 07:11:37;;;;;;;;;4.00;4.00;;;;;24.19;39.35;102011.81;5088649;27;45334;-79
2022/07/16 07:14:03;;;;;;;;;3.67;3.67;;;;;24.41;37.76;101998.91;5085621;27;45302;-77
2022/07/16 07:16:28;;;;;;;;;3.67;3.67;;;;;24.70;37.87;102003.91;5086071;27;45468;-77
2022/07/16 07:18:54;;;;;;;;;3.00;3.00;;;;;24.92;36.85;101988.25;5087127;27;45213;-78
2022/07/16 07:21:19;;;;;;;;;4.00;4.00;;;;;25.19;36.81;102006.75;5087336;27;45445;-78
2022/07/16 07:23:45;;;;;;;;;5.67;3.00;;;;;25.32;35.37;101984.88;5090178;27;45653;-81
2022/07/16 07:26:10;;;;;;;;;3.67;3.67;;;;;25.54;35.19;101986.25;5082846;27;45533;-80
2022/07/16 07:28:35;;;;;;;;;2.67;2.67;;;;;25.84;34.41;101998.34;5091954;27;45335;-81
2022/07/16 07:31:01;;;;;;;;;5.67;4.67;;;;;26.11;34.02;102007.75;5087522;27;45421;-81
2022/07/16 07:33:26;;;;;;;;;7.33;5.33;;;;;26.27;34.04;101989.34;5082982;27;45291;-79
2022/07/16 07:35:52;;;;;;;;;3.00;3.00;;;;;26.56;33.88;102013.09;5087927;27;45726;-80
2022/07/16 07:38:17;;;;;;;;;4.75;3.50;;;;;26.73;35.11;102012.72;5097498;27;45681;-80
2022/07/16 07:40:43;;;;;;;;;5.00;3.00;;;;;26.89;32.89;102001.50;5087001;27;45458;-78
2022/07/16 07:43:08;;;;;;;;;3.25;3.25;;;;;27.11;32.38;102002.75;5099745;27;45237;-78
2022/07/16 07:45:34;;;;;;;;;4.00;3.25;;;;;27.33;34.12;102008.53;5088379;27;45275;-78
2022/07/16 07:47:59;;;;;;;;;4.00;4.00;;;;;27.46;31.79;102006.38;5101574;27;46267;-77
2022/07/16 07:50:24;;;;;;;;;2.75;2.75;;;;;27.57;32.78;101998.84;5094761;27;45212;-77
2022/07/16 07:52:50;;;;;;;;;2.50;2.25;;;;;27.80;33.46;102008.19;5084905;27;45242;-80
2022/07/16 07:55:15;;;;;;;;;3.50;3.25;;;;;27.97;32.61;102002.28;5086963;27;45340;-79
2022/07/16 07:57:42;;;;;;;;;4.00;2.00;;;;;28.27;31.75;102011.38;5090116;27;46059;-79
2022/07/16 08:00:09;;;;;;;;;5.00;3.75;;;;;28.42;30.09;102004.56;5087007;27;45366;-79
2022/07/16 08:02:34;;;;;;;;;2.50;2.25;;;;;28.61;32.03;101994.91;5091980;27;45319;-77
2022/07/16 08:05:00;;;;;;;;;3.25;3.25;;;;;28.86;29.96;102002.28;5086980;27;45509;-77
2022/07/16 08:07:25;;;;;;;;;3.00;3.00;;;;;29.05;31.31;102008.03;5092493;27;45398;-80
2022/07/16 08:09:50;;;;;;;;;4.25;3.25;;;;;29.30;31.15;102008.97;5092052;27;45360;-78
2022/07/16 08:12:16;;;;;;;;;3.00;3.00;;;;;29.54;30.91;102007.19;5093256;27;45282;-78
2022/07/16 08:14:41;;;;;;;;;2.00;2.00;;;;;29.70;28.66;102015.75;5092210;27;45238;-78
2022/07/16 08:17:06;;;;;;;;;4.00;4.00;;;;;29.79;29.19;102006.34;5082621;27;45581;-78
2022/07/16 08:19:32;;;;;;;;;4.75;3.25;;;;;29.97;27.61;102002.94;5086323;27;45280;-79
2022/07/16 08:22:02;;;;;;;;;4.00;3.00;;;;;30.08;27.98;102008.88;5088072;27;45263;-79
2022/07/16 08:27:12;;;;;;;;;5.00;3.00;;;;;30.36;27.61;102004.22;5090295;27;45358;-78
2022/07/16 08:29:37;;;;;;;;;6.50;4.25;;;;;30.50;27.21;101996.34;5090617;27;47825;-75
2022/07/16 08:32:04;;;;;;;;;4.25;3.50;;;;;30.73;26.75;102000.91;5088289;27;45331;-75
2022/07/16 08:34:29;;;;;;;;;4.00;2.25;;;;;30.82;27.52;101996.94;5092946;27;45354;-77
2022/07/16 08:36:55;;;;;;;;;3.50;3.50;;;;;30.94;27.40;101997.28;5089729;27;46133;-77
2022/07/16 08:39:21;;;;;;;;;3.75;2.25;;;;;31.20;26.28;101998.03;5093059;27;45363;-75
2022/07/16 08:41:47;;;;;;;;;2.50;2.50;;;;;31.41;26.55;102005.31;5078392;27;45392;-72
2022/07/16 08:44:13;;;;;;;;;1.00;1.00;;;;;31.61;25.13;101996.22;5074148;27;47332;-80
2022/07/16 08:46:40;;;;;;;;;3.75;3.75;;;;;31.75;26.81;101994.72;5089857;27;45551;-78
2022/07/16 08:49:05;;;;;;;;;3.20;2.40;;;;;31.89;26.22;101995.88;5097338;27;45296;-78
2022/07/16 08:51:36;;;;;;;;;4.00;2.75;;;;;32.13;24.45;102005.78;5080975;27;45351;-78
2022/07/16 08:54:15;;;;;;;;;3.25;3.25;;;;;32.26;25.27;101996.91;5088082;27;45364;-78
2022/07/16 08:56:45;;;;;;;;;3.40;2.40;;;;;32.49;25.86;102005.88;5082052;27;46333;-78
2022/07/16 08:59:13;;;;;;;;;4.20;2.20;;;;;32.64;25.27;102010.63;5089167;27;45256;-77
2022/07/16 09:01:39;;;;;;;;;3.00;3.00;;;;;32.87;24.63;102003.09;5085380;27;45371;-77
2022/07/16 09:04:05;;;;;;;;;1.60;1.60;;;;;32.94;23.66;101994.50;5092740;27;45161;-77
2022/07/16 09:06:31;;;;;;;;;2.25;2.25;;;;;33.20;23.99;102006.00;5085395;27;45234;-78
2022/07/16 09:08:57;;;;;;;;;3.00;1.20;;;;;33.25;24.01;101989.34;5090791;27;45771;-78
2022/07/16 09:11:31;;;;;;;;;2.25;2.25;;;;;33.51;24.70;102002.53;5086898;27;45327;-78
2022/07/16 09:14:04;;;;;;;;;2.20;2.20;;;;;33.69;23.73;101997.06;5084682;27;47243;-78
2022/07/16 09:16:44;;;;;;;;;3.20;3.20;;;;;33.82;22.55;101992.69;5081346;27;47098;-78
2022/07/16 09:19:14;;;;;;;;;2.20;2.00;;;;;34.02;23.13;102002.56;5084665;27;45459;-78
2022/07/16 09:22:09;;;;;;;;;2.60;2.60;;;;;34.19;22.77;102015.38;5092061;27;45248;-78
2022/07/16 09:24:40;;;;;;;;;2.20;2.20;;;;;34.38;23.14;102009.75;5087937;27;45417;-79
2022/07/16 09:27:17;;;;;;;;;3.20;2.80;;;;;34.51;22.58;102008.09;5085476;27;48026;-79
2022/07/16 09:29:58;;;;;;;;;3.80;2.00;;;;;34.65;22.72;101991.72;5089925;27;45335;-78
2022/07/16 09:32:34;;;;;;;;;3.20;2.80;;;;;34.85;20.67;102011.66;5087283;27;45495;-78
2022/07/16 09:35:11;;;;;;;;;4.40;3.20;;;;;34.90;20.72;101995.75;5084535;27;45415;-79
2022/07/16 09:37:53;;;;;;;;;2.60;2.60;;;;;35.15;22.25;102015.34;5093288;27;46142;-79
2022/07/16 09:40:39;;;;;;;;;2.20;2.00;;;;;35.15;21.84;102011.69;5088276;27;45441;-78
2022/07/16 09:43:24;;;;;;;;;3.40;3.00;;;;;35.39;22.13;102007.47;5086642;27;45288;-78
2022/07/16 09:46:01;;;;;;;;;4.60;3.00;;;;;35.45;22.01;102003.44;5081145;27;45395;-78
2022/07/16 09:48:27;;;;;;;;;2.20;1.80;;;;;35.68;20.82;102012.16;5090797;27;45270;-78
2022/07/16 09:50:54;;;;;;;;;3.00;3.00;;;;;35.81;21.66;102010.44;5089329;27;45173;-78
2022/07/16 09:53:25;;;;;;;;;3.20;3.00;;;;;35.93;19.48;102009.63;5068787;27;45296;-79
2022/07/16 09:56:02;;;;;;;;;3.20;3.00;;;;;36.09;21.41;102001.31;5079767;27;46456;-78
2022/07/16 09:58:29;;;;;;;;;2.00;2.00;;;;;36.26;19.35;102008.50;5089682;27;45583;-76
2022/07/16 10:00:55;;;;;;;;;3.00;2.40;;;;;36.38;19.71;102020.56;5073051;27;45576;-76
2022/07/16 10:03:20;;;;;;;;;2.25;2.25;;;;;36.37;20.15;102019.69;5095701;27;45402;-74
2022/07/16 10:05:46;;;;;;;;;4.00;4.00;;;;;36.20;20.31;102018.03;5088470;27;45451;-77
2022/07/16 10:08:13;;;;;;;;;2.00;2.00;;;;;36.19;19.51;102020.91;5094870;27;45346;-78
2022/07/16 10:10:38;;;;;;;;;4.80;3.60;;;;;36.17;19.42;102018.22;5086428;27;45410;-74
2022/07/16 10:13:04;;;;;;;;;5.25;3.00;;;;;36.23;19.08;102019.72;5087949;27;45387;-77
2022/07/16 10:15:30;;;;;;;;;4.25;2.75;;;;;36.30;19.83;102019.22;5094932;27;45370;-76
2022/07/16 10:17:55;;;;;;;;;5.00;3.25;;;;;36.14;19.01;102010.19;5076796;27;47842;-77
2022/07/16 10:20:20;;;;;;;;;6.00;4.25;;;;;36.27;18.83;102019.41;5089998;27;45284;-76
2022/07/16 10:22:48;;;;;;;;;3.75;3.75;;;;;36.38;19.30;102037.97;5087550;27;45315;-77
2022/07/16 10:25:23;;;;;;;;;4.20;4.20;;;;;36.56;20.23;102024.91;5081317;27;45430;-77
2022/07/16 10:27:49;;;;;;;;;3.00;3.00;;;;;36.72;20.04;102020.16;5085554;27;46355;-77
2022/07/16 10:30:25;;;;;;;;;10.00;6.80;;;;;36.66;18.35;102019.66;5096175;27;45418;-77
2022/07/16 10:32:59;;;;;;;;;4.00;3.00;;;;;36.87;19.28;102020.97;5096649;27;45421;-76
2022/07/16 10:35:30;;;;;;;;;2.00;2.00;;;;;37.10;19.56;102010.28;5094771;27;45396;-76
2022/07/16 10:38:12;;;;;;;;;2.00;2.00;;;;;36.91;18.57;102021.66;5088459;27;45491;-77
2022/07/16 10:40:40;;;;;;;;;6.20;5.00;;;;;36.57;17.55;102004.63;5088269;27;45379;-76
2022/07/16 10:43:13;;;;;;;;;5.20;3.60;;;;;36.54;17.68;102024.13;5096097;27;45314;-75
2022/07/16 10:45:58;;;;;;;;;4.00;3.40;;;;;36.58;17.05;102011.94;5093893;27;45379;-75
2022/07/16 10:48:29;;;;;;;;;2.60;2.60;;;;;36.82;17.76;102012.13;5101084;27;45510;-75
2022/07/16 10:51:25;;;;;;;;;1.60;1.60;;;;;37.03;18.75;102004.31;5098679;27;45199;-75
2022/07/16 10:53:57;;;;;;;;;3.60;3.00;;;;;37.27;18.61;102007.25;5100397;27;45311;-75
2022/07/16 10:56:49;;;;;;;;;3.40;3.40;;;;;37.39;18.54;102003.66;5096179;27;45363;-75
2022/07/16 10:59:17;;;;;;;;;7.20;4.60;;;;;37.32;18.47;101998.66;5083975;27;45367;-76
2022/07/16 11:01:44;;;;;;;;;3.80;3.80;;;;;37.63;18.65;102000.16;5089818;27;45352;-76
2022/07/16 11:04:11;;;;;;;;;5.20;4.20;;;;;37.80;18.34;102002.59;5068811;27;45439;-75
2022/07/16 11:06:37;;;;;;;;;3.00;3.00;;;;;37.94;18.09;101992.44;5083550;27;45316;-76
2022/07/16 11:09:06;;;;;;;;;3.80;3.80;;;;;38.03;17.78;102002.81;5089938;27;45626;-76
2022/07/16 11:11:39;;;;;;;;;4.20;2.60;;;;;38.18;17.25;102009.13;5085574;27;45425;-76
2022/07/16 11:14:07;;;;;;;;;3.60;2.80;;;;;38.42;18.06;102006.44;5093844;27;45346;-76
2022/07/16 11:16:33;;;;;;;;;2.80;2.80;;;;;38.58;17.69;101992.38;5088773;27;45245;-77
2022/07/16 11:19:00;;;;;;;;;2.20;2.20;;;;;38.70;16.75;101997.81;5099561;27;45428;-78
2022/07/16 11:21:26;;;;;;;;;1.60;1.60;;;;;38.95;17.15;101993.22;5081471;27;45424;-75
2022/07/16 11:23:59;;;;;;;;;3.50;3.50;;;;;38.92;16.41;101985.16;5089814;27;45461;-76
2022/07/16 11:26:26;;;;;;;;;5.00;2.40;;;;;38.91;16.84;101984.28;5095779;27;45549;-76
2022/07/16 11:28:52;;;;;;;;;4.20;3.40;;;;;38.84;16.39;101996.78;5097174;27;46173;-76
2022/07/16 11:31:24;;;;;;;;;3.80;2.80;;;;;38.55;16.35;101996.25;5098691;27;45335;-76
2022/07/16 11:33:50;;;;;;;;;3.00;3.00;;;;;38.26;16.74;101991.00;5086676;27;45423;-76
2022/07/16 11:36:15;;;;;;;;;2.75;2.75;;;;;38.20;16.65;101983.13;5096078;27;45287;-76
2022/07/16 11:38:41;;;;;;;;;3.00;3.00;;;;;38.29;16.26;101981.59;5088082;27;45240;-75
2022/07/16 11:41:08;;;;;;;;;8.00;2.80;;;;;38.51;15.86;101991.94;5087819;27;45316;-76
2022/07/16 11:43:33;;;;;;;;;3.20;2.20;;;;;38.80;16.67;101998.03;5087587;27;45736;-76
2022/07/16 11:45:58;;;;;;;;;2.25;2.25;;;;;38.97;16.26;101998.66;5099706;27;45394;-76
2022/07/16 11:48:24;;;;;;;;;4.25;3.00;;;;;39.00;15.21;101999.28;5089987;27;46284;-76
2022/07/16 11:50:51;;;;;;;;;3.00;3.00;;;;;38.89;15.83;101999.22;5096424;27;45371;-76
2022/07/16 11:53:28;;;;;;;;;2.00;2.00;;;;;38.93;15.99;101987.81;5079972;27;45284;-76
2022/07/16 11:55:54;;;;;;;;;3.40;3.40;;;;;38.87;15.47;101991.03;5087911;27;45686;-76
2022/07/16 11:58:19;;;;;;;;;3.50;3.50;;;;;38.93;16.20;101971.22;5087155;27;46252;-76
2022/07/16 12:00:47;;;;;;;;;5.25;2.00;;;;;38.98;16.89;101984.69;5083734;27;45271;-76
2022/07/16 12:03:13;;;;;;;;;3.00;3.00;;;;;39.11;16.17;101970.78;5088068;27;45409;-76
2022/07/16 12:05:38;;;;;;;;;3.60;3.00;;;;;39.33;15.56;101979.19;5089877;27;45336;-78
2022/07/16 12:08:04;;;;;;;;;3.25;3.25;;;;;39.39;16.65;101973.16;5095302;27;45501;-78
2022/07/16 12:10:29;;;;;;;;;3.25;2.25;;;;;39.30;15.70;101962.81;5083081;27;45359;-76
2022/07/16 12:13:03;;;;;;;;;3.25;3.25;;;;;39.27;15.67;101963.06;5089579;27;45407;-77
2022/07/16 12:15:28;;;;;;;;;5.80;3.20;;;;;39.26;16.72;101968.69;5087132;27;45626;-77